Terminal Aerodrome Forecast
Issued by NWS

Home | Current Version | Previous Version | Text Only | Print | Product List | Glossary Off
Versions: 1 2 3 4 5 6 7 8 9 10 11 12 13 14 15 16 17

000
FTUS43 KTOP 211120
TAFMHK
TAF
KMHK 211120Z 2112/2212 19009KT P6SM BKN200
     FM211400 21010KT P6SM SCT060 BKN150
     FM212200 25012KT P6SM VCTS BKN080CB
     FM220300 27005KT 3SM TSRA SCT010 BKN025CB=

USA.gov is the U.S. government's official web portal to all federal, state and local government web resources and services.